sensor_id;sensor_type;location;lat;lon;timestamp;pressure;altitude;pressure_sealevel;temperature;humidity
8416;BME280;4245;42.120;24.732;2023-07-24T00:01:24;99398.41;;;26.91;53.89
8416;BME280;4245;42.120;24.732;2023-07-24T00:03:51;99393.34;;;26.75;54.82
8416;BME280;4245;42.120;24.732;2023-07-24T00:06:20;99398.16;;;26.79;54.56
8416;BME280;4245;42.120;24.732;2023-07-24T00:08:46;99398.97;;;26.60;55.37
8416;BME280;4245;42.120;24.732;2023-07-24T00:11:13;99391.38;;;26.36;55.40
8416;BME280;4245;42.120;24.732;2023-07-24T00:13:40;99406.69;;;26.37;55.98
8416;BME280;4245;42.120;24.732;2023-07-24T00:16:17;99402.91;;;26.45;55.49
8416;BME280;4245;42.120;24.732;2023-07-24T00:18:45;99399.75;;;26.28;55.76
8416;BME280;4245;42.120;24.732;2023-07-24T00:21:12;99393.19;;;26.09;56.63
8416;BME280;4245;42.120;24.732;2023-07-24T00:23:39;99392.75;;;26.12;57.99
8416;BME280;4245;42.120;24.732;2023-07-24T00:26:09;99399.81;;;26.00;59.99
8416;BME280;4245;42.120;24.732;2023-07-24T00:28:37;99397.25;;;25.85;61.88
8416;BME280;4245;42.120;24.732;2023-07-24T00:31:03;99394.50;;;25.79;63.42
8416;BME280;4245;42.120;24.732;2023-07-24T00:33:32;99401.56;;;25.67;66.32
8416;BME280;4245;42.120;24.732;2023-07-24T00:35:59;99401.06;;;25.57;67.84
8416;BME280;4245;42.120;24.732;2023-07-24T00:38:26;99398.66;;;25.40;69.28
8416;BME280;4245;42.120;24.732;2023-07-24T00:40:53;99385.09;;;25.47;72.76
8416;BME280;4245;42.120;24.732;2023-07-24T00:43:19;99383.56;;;25.38;78.00
8416;BME280;4245;42.120;24.732;2023-07-24T00:45:46;99393.94;;;25.21;83.10
8416;BME280;4245;42.120;24.732;2023-07-24T00:48:14;99385.31;;;25.18;86.10
8416;BME280;4245;42.120;24.732;2023-07-24T00:50:43;99379.00;;;25.10;85.62
8416;BME280;4245;42.120;24.732;2023-07-24T00:53:11;99380.47;;;25.13;86.84
8416;BME280;4245;42.120;24.732;2023-07-24T00:55:39;99387.75;;;25.06;86.67
8416;BME280;4245;42.120;24.732;2023-07-24T00:58:06;99393.19;;;25.06;85.44
8416;BME280;4245;42.120;24.732;2023-07-24T01:00:34;99389.88;;;25.10;86.84
8416;BME280;4245;42.120;24.732;2023-07-24T01:03:01;99391.56;;;25.12;86.32
8416;BME280;4245;42.120;24.732;2023-07-24T01:05:28;99393.19;;;25.06;88.98
8416;BME280;4245;42.120;24.732;2023-07-24T01:07:56;99396.00;;;24.91;86.47
8416;BME280;4245;42.120;24.732;2023-07-24T01:10:23;99396.94;;;25.05;90.97
8416;BME280;4245;42.120;24.732;2023-07-24T01:12:55;99390.41;;;24.99;93.47
8416;BME280;4245;42.120;24.732;2023-07-24T01:15:29;99397.09;;;24.97;95.50
8416;BME280;4245;42.120;24.732;2023-07-24T01:18:00;99393.72;;;24.95;99.06
8416;BME280;4245;42.120;24.732;2023-07-24T01:20:29;99396.06;;;24.77;100.00
8416;BME280;4245;42.120;24.732;2023-07-24T01:23:09;99397.66;;;24.71;100.00
8416;BME280;4245;42.120;24.732;2023-07-24T01:25:57;99404.53;;;24.67;100.00
8416;BME280;4245;42.120;24.732;2023-07-24T01:28:24;99401.56;;;24.62;100.00
8416;BME280;4245;42.120;24.732;2023-07-24T01:30:52;99395.69;;;24.58;100.00
8416;BME280;4245;42.120;24.732;2023-07-24T01:33:19;99414.94;;;24.42;100.00
8416;BME280;4245;42.120;24.732;2023-07-24T01:35:48;99405.25;;;24.54;100.00
8416;BME280;4245;42.120;24.732;2023-07-24T01:38:17;99401.22;;;24.50;100.00
8416;BME280;4245;42.120;24.732;2023-07-24T01:40:48;99403.63;;;24.39;100.00
8416;BME280;4245;42.120;24.732;2023-07-24T01:43:15;99396.06;;;24.34;100.00
8416;BME280;4245;42.120;24.732;2023-07-24T01:45:42;99407.94;;;24.33;100.00
8416;BME280;4245;42.120;24.732;2023-07-24T01:48:08;99400.91;;;24.39;100.00
8416;BME280;4245;42.120;24.732;2023-07-24T01:50:35;99405.16;;;24.27;100.00
8416;BME280;4245;42.120;24.732;2023-07-24T01:53:02;99412.44;;;24.26;100.00
8416;BME280;4245;42.120;24.732;2023-07-24T01:55:30;99410.84;;;24.32;100.00
8416;BME280;4245;42.120;24.732;2023-07-24T01:57:58;99409.38;;;24.14;100.00
8416;BME280;4245;42.120;24.732;2023-07-24T02:00:25;99403.69;;;24.09;100.00
8416;BME280;4245;42.120;24.732;2023-07-24T02:02:52;99401.31;;;24.21;100.00
8416;BME280;4245;42.120;24.732;2023-07-24T02:05:19;99403.47;;;24.11;100.00
8416;BME280;4245;42.120;24.732;2023-07-24T02:07:46;99408.34;;;24.15;100.00
8416;BME280;4245;42.120;24.732;2023-07-24T02:10:13;99408.72;;;24.12;100.00
8416;BME280;4245;42.120;24.732;2023-07-24T02:12:39;99401.34;;;24.06;100.00
8416;BME280;4245;42.120;24.732;2023-07-24T02:15:08;99410.25;;;24.00;100.00
8416;BME280;4245;42.120;24.732;2023-07-24T02:17:35;99398.41;;;23.87;100.00
8416;BME280;4245;42.120;24.732;2023-07-24T02:20:03;99400.16;;;23.94;100.00
8416;BME280;4245;42.120;24.732;2023-07-24T02:22:30;99404.16;;;23.98;100.00
8416;BME280;4245;42.120;24.732;2023-07-24T02:24:56;99408.50;;;23.78;100.00
8416;BME280;4245;42.120;24.732;2023-07-24T02:27:28;99410.31;;;23.71;100.00
8416;BME280;4245;42.120;24.732;2023-07-24T02:29:58;99399.78;;;23.82;100.00
8416;BME280;4245;42.120;24.732;2023-07-24T02:32:26;99400.34;;;23.78;100.00
8416;BME280;4245;42.120;24.732;2023-07-24T02:34:53;99413.00;;;23.86;100.00
8416;BME280;4245;42.120;24.732;2023-07-24T02:37:20;99410.00;;;23.80;100.00
8416;BME280;4245;42.120;24.732;2023-07-24T02:39:47;99404.38;;;23.82;100.00
8416;BME280;4245;42.120;24.732;2023-07-24T02:42:14;99417.94;;;23.82;100.00
8416;BME280;4245;42.120;24.732;2023-07-24T02:44:41;99414.69;;;23.87;100.00
8416;BME280;4245;42.120;24.732;2023-07-24T02:47:08;99421.13;;;23.86;100.00
8416;BME280;4245;42.120;24.732;2023-07-24T02:49:36;99415.31;;;23.89;100.00
8416;BME280;4245;42.120;24.732;2023-07-24T02:52:04;99411.41;;;23.91;100.00
8416;BME280;4245;42.120;24.732;2023-07-24T02:54:30;99411.28;;;23.99;100.00
8416;BME280;4245;42.120;24.732;2023-07-24T02:56:58;99410.44;;;23.99;100.00
8416;BME280;4245;42.120;24.732;2023-07-24T02:59:24;99422.69;;;24.09;100.00
8416;BME280;4245;42.120;24.732;2023-07-24T03:01:51;99421.75;;;24.17;100.00
8416;BME280;4245;42.120;24.732;2023-07-24T03:04:18;99414.38;;;23.96;100.00
8416;BME280;4245;42.120;24.732;2023-07-24T03:06:46;99426.06;;;23.97;100.00
8416;BME280;4245;42.120;24.732;2023-07-24T03:09:13;99415.34;;;23.74;100.00
8416;BME280;4245;42.120;24.732;2023-07-24T03:11:40;99408.22;;;23.73;100.00
8416;BME280;4245;42.120;24.732;2023-07-24T03:14:07;99413.34;;;23.82;100.00
8416;BME280;4245;42.120;24.732;2023-07-24T03:16:34;99412.53;;;23.67;100.00
8416;BME280;4245;42.120;24.732;2023-07-24T03:19:01;99413.66;;;23.58;100.00
8416;BME280;4245;42.120;24.732;2023-07-24T03:21:28;99408.06;;;23.60;100.00
8416;BME280;4245;42.120;24.732;2023-07-24T03:23:56;99412.81;;;23.58;100.00
8416;BME280;4245;42.120;24.732;2023-07-24T03:26:23;99415.50;;;23.72;100.00
8416;BME280;4245;42.120;24.732;2023-07-24T03:28:49;99422.91;;;23.78;100.00
8416;BME280;4245;42.120;24.732;2023-07-24T03:31:17;99433.91;;;23.92;100.00
8416;BME280;4245;42.120;24.732;2023-07-24T03:33:43;99420.84;;;23.95;100.00
8416;BME280;4245;42.120;24.732;2023-07-24T03:36:10;99421.41;;;23.91;100.00
8416;BME280;4245;42.120;24.732;2023-07-24T03:38:37;99421.75;;;24.02;100.00
8416;BME280;4245;42.120;24.732;2023-07-24T03:41:07;99422.72;;;24.31;100.00
8416;BME280;4245;42.120;24.732;2023-07-24T03:43:33;99421.75;;;24.53;100.00
8416;BME280;4245;42.120;24.732;2023-07-24T03:46:00;99420.56;;;24.62;100.00
8416;BME280;4245;42.120;24.732;2023-07-24T03:48:27;99417.16;;;24.53;100.00
8416;BME280;4245;42.120;24.732;2023-07-24T03:50:58;99416.13;;;24.54;100.00
8416;BME280;4245;42.120;24.732;2023-07-24T03:53:25;99418.38;;;24.51;100.00
8416;BME280;4245;42.120;24.732;2023-07-24T03:55:52;99418.97;;;24.67;100.00
8416;BME280;4245;42.120;24.732;2023-07-24T03:58:23;99418.03;;;24.60;100.00
8416;BME280;4245;42.120;24.732;2023-07-24T04:00:50;99410.22;;;24.51;100.00
8416;BME280;4245;42.120;24.732;2023-07-24T04:03:17;99421.88;;;24.66;100.00
8416;BME280;4245;42.120;24.732;2023-07-24T04:05:44;99427.09;;;24.89;100.00
8416;BME280;4245;42.120;24.732;2023-07-24T04:08:11;99429.97;;;25.02;100.00
8416;BME280;4245;42.120;24.732;2023-07-24T04:10:38;99416.88;;;25.12;100.00
8416;BME280;4245;42.120;24.732;2023-07-24T04:13:06;99419.13;;;25.08;100.00
8416;BME280;4245;42.120;24.732;2023-07-24T04:15:37;99427.53;;;25.14;100.00
8416;BME280;4245;42.120;24.732;2023-07-24T04:18:05;99428.97;;;25.09;100.00
8416;BME280;4245;42.120;24.732;2023-07-24T04:20:32;99435.16;;;25.25;100.00
8416;BME280;4245;42.120;24.732;2023-07-24T04:22:59;99442.97;;;25.34;100.00
8416;BME280;4245;42.120;24.732;2023-07-24T04:25:25;99444.22;;;25.32;100.00
8416;BME280;4245;42.120;24.732;2023-07-24T04:27:52;99440.78;;;25.51;100.00
8416;BME280;4245;42.120;24.732;2023-07-24T04:30:19;99439.66;;;25.67;100.00
8416;BME280;4245;42.120;24.732;2023-07-24T04:32:47;99437.59;;;25.47;100.00
8416;BME280;4245;42.120;24.732;2023-07-24T04:35:15;99449.75;;;25.45;100.00
8416;BME280;4245;42.120;24.732;2023-07-24T04:37:41;99454.63;;;25.28;100.00
8416;BME280;4245;42.120;24.732;2023-07-24T04:40:09;99465.22;;;25.17;100.00
8416;BME280;4245;42.120;24.732;2023-07-24T04:42:37;99452.53;;;24.24;100.00
8416;BME280;4245;42.120;24.732;2023-07-24T04:45:05;99456.97;;;23.66;100.00
8416;BME280;4245;42.120;24.732;2023-07-24T04:47:32;99449.97;;;23.72;100.00
8416;BME280;4245;42.120;24.732;2023-07-24T04:50:00;99451.81;;;23.86;100.00
8416;BME280;4245;42.120;24.732;2023-07-24T04:52:27;99454.03;;;23.97;100.00
8416;BME280;4245;42.120;24.732;2023-07-24T04:54:54;99450.00;;;24.22;100.00
8416;BME280;4245;42.120;24.732;2023-07-24T04:57:21;99462.66;;;24.51;100.00
8416;BME280;4245;42.120;24.732;2023-07-24T04:59:47;99467.53;;;24.77;100.00
8416;BME280;4245;42.120;24.732;2023-07-24T05:02:14;99463.78;;;24.57;100.00
8416;BME280;4245;42.120;24.732;2023-07-24T05:04:41;99453.13;;;24.41;100.00
8416;BME280;4245;42.120;24.732;2023-07-24T05:07:10;99451.94;;;24.43;100.00
8416;BME280;4245;42.120;24.732;2023-07-24T05:09:37;99462.75;;;24.58;100.00
8416;BME280;4245;42.120;24.732;2023-07-24T05:12:05;99462.94;;;24.78;100.00
8416;BME280;4245;42.120;24.732;2023-07-24T05:14:32;99461.41;;;25.11;100.00
8416;BME280;4245;42.120;24.732;2023-07-24T05:16:59;99456.41;;;25.15;100.00
8416;BME280;4245;42.120;24.732;2023-07-24T05:19:28;99458.69;;;25.11;100.00
8416;BME280;4245;42.120;24.732;2023-07-24T05:21:55;99460.53;;;25.32;100.00
8416;BME280;4245;42.120;24.732;2023-07-24T05:24:26;99467.09;;;25.44;100.00
8416;BME280;4245;42.120;24.732;2023-07-24T05:26:53;99470.06;;;25.49;100.00
8416;BME280;4245;42.120;24.732;2023-07-24T05:29:20;99465.91;;;25.53;100.00
8416;BME280;4245;42.120;24.732;2023-07-24T05:31:49;99481.47;;;25.59;100.00
8416;BME280;4245;42.120;24.732;2023-07-24T05:34:16;99480.22;;;25.62;100.00
8416;BME280;4245;42.120;24.732;2023-07-24T05:36:43;99481.34;;;25.74;100.00
8416;BME280;4245;42.120;24.732;2023-07-24T05:39:10;99482.75;;;25.98;100.00
8416;BME280;4245;42.120;24.732;2023-07-24T05:41:38;99479.47;;;26.09;100.00
8416;BME280;4245;42.120;24.732;2023-07-24T05:44:05;99478.94;;;26.26;100.00
8416;BME280;4245;42.120;24.732;2023-07-24T05:46:31;99465.72;;;26.30;99.79
8416;BME280;4245;42.120;24.732;2023-07-24T05:48:58;99473.81;;;26.64;97.35
8416;BME280;4245;42.120;24.732;2023-07-24T05:51:26;99469.63;;;26.62;97.25
8416;BME280;4245;42.120;24.732;2023-07-24T05:53:53;99453.72;;;26.85;96.86
8416;BME280;4245;42.120;24.732;2023-07-24T05:56:20;99456.50;;;27.18;93.90
8416;BME280;4245;42.120;24.732;2023-07-24T05:58:49;99465.72;;;27.04;92.61
8416;BME280;4245;42.120;24.732;2023-07-24T06:01:16;99465.09;;;27.28;92.87
8416;BME280;4245;42.120;24.732;2023-07-24T06:03:43;99461.72;;;27.46;90.22
8416;BME280;4245;42.120;24.732;2023-07-24T06:06:10;99460.81;;;27.91;87.29
8416;BME280;4245;42.120;24.732;2023-07-24T06:08:36;99467.34;;;27.84;87.81
8416;BME280;4245;42.120;24.732;2023-07-24T06:11:03;99454.94;;;27.94;86.39
8416;BME280;4245;42.120;24.732;2023-07-24T06:13:30;99454.81;;;27.56;85.70
8416;BME280;4245;42.120;24.732;2023-07-24T06:15:58;99455.19;;;27.80;83.64
8416;BME280;4245;42.120;24.732;2023-07-24T06:18:25;99453.22;;;28.00;79.04
8416;BME280;4245;42.120;24.732;2023-07-24T06:20:52;99451.38;;;28.45;78.54
8416;BME280;4245;42.120;24.732;2023-07-24T06:23:18;99457.00;;;28.94;72.21
8416;BME280;4245;42.120;24.732;2023-07-24T06:25:45;99452.69;;;29.05;73.03
8416;BME280;4245;42.120;24.732;2023-07-24T06:28:12;99451.94;;;29.48;69.51
8416;BME280;4245;42.120;24.732;2023-07-24T06:30:39;99436.84;;;29.82;68.16
8416;BME280;4245;42.120;24.732;2023-07-24T06:33:07;99439.69;;;29.93;67.83
8416;BME280;4245;42.120;24.732;2023-07-24T06:35:34;99437.41;;;30.08;67.22
8416;BME280;4245;42.120;24.732;2023-07-24T06:38:00;99439.06;;;30.09;67.27
8416;BME280;4245;42.120;24.732;2023-07-24T06:40:27;99436.50;;;30.44;64.96
8416;BME280;4245;42.120;24.732;2023-07-24T06:42:54;99427.69;;;30.72;61.97
8416;BME280;4245;42.120;24.732;2023-07-24T06:45:39;99435.34;;;30.82;61.02
8416;BME280;4245;42.120;24.732;2023-07-24T06:48:07;99439.53;;;30.84;61.42
8416;BME280;4245;42.120;24.732;2023-07-24T06:50:34;99443.06;;;31.03;59.83
8416;BME280;4245;42.120;24.732;2023-07-24T06:53:01;99437.81;;;31.13;56.61
8416;BME280;4245;42.120;24.732;2023-07-24T06:55:28;99439.66;;;31.31;55.68
8416;BME280;4245;42.120;24.732;2023-07-24T06:57:54;99433.78;;;31.16;56.09
8416;BME280;4245;42.120;24.732;2023-07-24T07:00:21;99438.41;;;31.03;57.68
8416;BME280;4245;42.120;24.732;2023-07-24T07:02:48;99438.78;;;31.19;55.93
8416;BME280;4245;42.120;24.732;2023-07-24T07:05:16;99433.06;;;31.43;53.82
8416;BME280;4245;42.120;24.732;2023-07-24T07:07:43;99430.47;;;31.37;53.75
8416;BME280;4245;42.120;24.732;2023-07-24T07:10:10;99430.06;;;31.10;53.79
8416;BME280;4245;42.120;24.732;2023-07-24T07:12:37;99426.38;;;31.28;53.90
8416;BME280;4245;42.120;24.732;2023-07-24T07:15:04;99430.94;;;31.57;53.96
8416;BME280;4245;42.120;24.732;2023-07-24T07:17:31;99434.28;;;31.82;51.26
8416;BME280;4245;42.120;24.732;2023-07-24T07:19:58;99422.22;;;31.83;51.43
8416;BME280;4245;42.120;24.732;2023-07-24T07:22:26;99423.84;;;32.19;49.64
8416;BME280;4245;42.120;24.732;2023-07-24T07:24:52;99424.41;;;32.21;49.66
8416;BME280;4245;42.120;24.732;2023-07-24T07:27:19;99417.91;;;31.76;52.16
8416;BME280;4245;42.120;24.732;2023-07-24T07:29:46;99422.44;;;31.82;51.70
8416;BME280;4245;42.120;24.732;2023-07-24T07:32:13;99422.38;;;32.05;50.77
8416;BME280;4245;42.120;24.732;2023-07-24T07:34:40;99416.47;;;32.37;49.48
8416;BME280;4245;42.120;24.732;2023-07-24T07:37:06;99413.25;;;32.85;47.72
8416;BME280;4245;42.120;24.732;2023-07-24T07:39:35;99407.03;;;33.06;47.21
8416;BME280;4245;42.120;24.732;2023-07-24T07:42:01;99413.06;;;33.19;47.20
8416;BME280;4245;42.120;24.732;2023-07-24T07:44:28;99407.69;;;33.13;47.25
8416;BME280;4245;42.120;24.732;2023-07-24T07:46:55;99408.63;;;33.35;47.33
8416;BME280;4245;42.120;24.732;2023-07-24T07:49:22;99411.50;;;33.62;45.38
8416;BME280;4245;42.120;24.732;2023-07-24T07:51:49;99404.50;;;33.93;44.52
8416;BME280;4245;42.120;24.732;2023-07-24T07:54:16;99406.22;;;33.77;44.13
8416;BME280;4245;42.120;24.732;2023-07-24T07:56:44;99401.75;;;33.93;44.29
8416;BME280;4245;42.120;24.732;2023-07-24T07:59:11;99405.22;;;33.83;44.61
8416;BME280;4245;42.120;24.732;2023-07-24T08:01:37;99395.38;;;34.14;44.32
8416;BME280;4245;42.120;24.732;2023-07-24T08:04:05;99401.69;;;34.31;43.86
8416;BME280;4245;42.120;24.732;2023-07-24T08:06:32;99399.84;;;34.96;42.13
8416;BME280;4245;42.120;24.732;2023-07-24T08:08:59;99398.09;;;35.16;42.09
8416;BME280;4245;42.120;24.732;2023-07-24T08:11:26;99392.75;;;35.37;41.59
8416;BME280;4245;42.120;24.732;2023-07-24T08:13:54;99396.44;;;35.15;41.76
8416;BME280;4245;42.120;24.732;2023-07-24T08:16:21;99393.38;;;34.80;42.67
8416;BME280;4245;42.120;24.732;2023-07-24T08:18:48;99389.22;;;34.51;43.93
8416;BME280;4245;42.120;24.732;2023-07-24T08:21:15;99396.16;;;34.80;42.71
8416;BME280;4245;42.120;24.732;2023-07-24T08:23:42;99393.66;;;35.15;42.67
8416;BME280;4245;42.120;24.732;2023-07-24T08:26:09;99395.19;;;35.70;41.36
8416;BME280;4245;42.120;24.732;2023-07-24T08:28:35;99396.13;;;35.91;40.67
8416;BME280;4245;42.120;24.732;2023-07-24T08:31:04;99395.78;;;35.72;41.31
8416;BME280;4245;42.120;24.732;2023-07-24T08:33:30;99402.22;;;35.98;40.71
8416;BME280;4245;42.120;24.732;2023-07-24T08:35:59;99402.13;;;36.30;39.53
8416;BME280;4245;42.120;24.732;2023-07-24T08:38:26;99399.41;;;36.50;39.47
8416;BME280;4245;42.120;24.732;2023-07-24T08:41:00;99390.88;;;36.67;38.70
8416;BME280;4245;42.120;24.732;2023-07-24T08:43:27;99382.59;;;36.92;37.55
8416;BME280;4245;42.120;24.732;2023-07-24T08:45:55;99379.25;;;36.75;38.03
8416;BME280;4245;42.120;24.732;2023-07-24T08:48:23;99370.34;;;36.52;38.27
8416;BME280;4245;42.120;24.732;2023-07-24T08:50:51;99376.22;;;37.01;37.62
8416;BME280;4245;42.120;24.732;2023-07-24T08:53:19;99373.16;;;37.18;37.17
8416;BME280;4245;42.120;24.732;2023-07-24T08:55:48;99374.53;;;37.61;36.06
8416;BME280;4245;42.120;24.732;2023-07-24T08:58:15;99374.78;;;37.50;36.08
8416;BME280;4245;42.120;24.732;2023-07-24T09:00:42;99370.69;;;36.96;36.59
8416;BME280;4245;42.120;24.732;2023-07-24T09:03:09;99369.59;;;36.92;37.59
8416;BME280;4245;42.120;24.732;2023-07-24T09:05:38;99362.94;;;37.19;36.84
8416;BME280;4245;42.120;24.732;2023-07-24T09:08:05;99362.63;;;37.46;36.54
8416;BME280;4245;42.120;24.732;2023-07-24T09:10:31;99365.03;;;37.77;35.72
8416;BME280;4245;42.120;24.732;2023-07-24T09:12:58;99367.09;;;38.16;34.90
8416;BME280;4245;42.120;24.732;2023-07-24T09:15:25;99367.44;;;38.58;33.61
8416;BME280;4245;42.120;24.732;2023-07-24T09:17:53;99367.56;;;38.77;32.71
8416;BME280;4245;42.120;24.732;2023-07-24T09:20:20;99366.06;;;38.56;32.10
8416;BME280;4245;42.120;24.732;2023-07-24T09:22:52;99362.56;;;38.30;32.91
8416;BME280;4245;42.120;24.732;2023-07-24T09:25:29;99357.72;;;38.07;32.21
8416;BME280;4245;42.120;24.732;2023-07-24T09:27:57;99359.13;;;38.04;32.44
8416;BME280;4245;42.120;24.732;2023-07-24T09:30:24;99350.25;;;37.92;32.37
8416;BME280;4245;42.120;24.732;2023-07-24T09:32:52;99352.66;;;38.19;31.15
8416;BME280;4245;42.120;24.732;2023-07-24T09:35:20;99345.94;;;37.71;32.14
8416;BME280;4245;42.120;24.732;2023-07-24T09:38:02;99343.97;;;38.31;31.67
8416;BME280;4245;42.120;24.732;2023-07-24T09:40:37;99343.25;;;38.98;30.52
8416;BME280;4245;42.120;24.732;2023-07-24T09:43:15;99335.75;;;38.59;31.53
8416;BME280;4245;42.120;24.732;2023-07-24T09:45:41;99332.34;;;39.06;30.99
8416;BME280;4245;42.120;24.732;2023-07-24T09:48:09;99324.72;;;38.88;29.99
8416;BME280;4245;42.120;24.732;2023-07-24T09:50:38;99318.19;;;38.69;30.19
8416;BME280;4245;42.120;24.732;2023-07-24T09:53:12;99316.13;;;38.85;29.69
8416;BME280;4245;42.120;24.732;2023-07-24T09:55:49;99310.75;;;39.51;29.48
8416;BME280;4245;42.120;24.732;2023-07-24T09:58:18;99307.78;;;39.42;29.47
8416;BME280;4245;42.120;24.732;2023-07-24T10:00:45;99304.91;;;39.52;29.46
8416;BME280;4245;42.120;24.732;2023-07-24T10:03:13;99304.50;;;39.64;29.04
8416;BME280;4245;42.120;24.732;2023-07-24T10:05:41;99307.22;;;40.12;29.06
8416;BME280;4245;42.120;24.732;2023-07-24T10:08:10;99304.34;;;40.54;27.88
8416;BME280;4245;42.120;24.732;2023-07-24T10:10:38;99302.47;;;40.68;27.53
8416;BME280;4245;42.120;24.732;2023-07-24T10:13:05;99299.03;;;40.39;27.53
8416;BME280;4245;42.120;24.732;2023-07-24T10:15:33;99294.69;;;40.84;27.43
8416;BME280;4245;42.120;24.732;2023-07-24T10:18:04;99291.28;;;41.19;26.93
8416;BME280;4245;42.120;24.732;2023-07-24T10:20:34;99286.63;;;40.31;27.81
8416;BME280;4245;42.120;24.732;2023-07-24T10:23:02;99283.19;;;41.04;26.98
8416;BME280;4245;42.120;24.732;2023-07-24T10:25:31;99277.75;;;41.40;26.34
8416;BME280;4245;42.120;24.732;2023-07-24T10:28:05;99265.69;;;41.58;26.29
8416;BME280;4245;42.120;24.732;2023-07-24T10:30:33;99273.94;;;41.50;26.19
8416;BME280;4245;42.120;24.732;2023-07-24T10:33:05;99266.75;;;41.49;25.54
8416;BME280;4245;42.120;24.732;2023-07-24T10:35:43;99265.66;;;41.86;24.92
8416;BME280;4245;42.120;24.732;2023-07-24T10:38:11;99256.44;;;41.85;24.20
8416;BME280;4245;42.120;24.732;2023-07-24T10:40:41;99252.09;;;42.06;23.58
8416;BME280;4245;42.120;24.732;2023-07-24T10:43:09;99251.19;;;42.20;23.62
8416;BME280;4245;42.120;24.732;2023-07-24T10:45:45;99247.88;;;42.18;23.79
8416;BME280;4245;42.120;24.732;2023-07-24T10:48:12;99234.72;;;42.32;23.76
8416;BME280;4245;42.120;24.732;2023-07-24T10:50:40;99239.75;;;42.43;22.49
8416;BME280;4245;42.120;24.732;2023-07-24T10:53:08;99233.97;;;42.40;20.51
8416;BME280;4245;42.120;24.732;2023-07-24T10:55:35;99220.19;;;42.21;20.36
8416;BME280;4245;42.120;24.732;2023-07-24T10:58:03;99220.19;;;42.43;20.84
8416;BME280;4245;42.120;24.732;2023-07-24T11:00:30;99209.28;;;42.86;21.55
8416;BME280;4245;42.120;24.732;2023-07-24T11:02:57;99210.41;;;42.10;23.08
8416;BME280;4245;42.120;24.732;2023-07-24T11:05:24;99201.25;;;41.46;24.16
8416;BME280;4245;42.120;24.732;2023-07-24T11:07:51;99191.63;;;42.02;24.37
8416;BME280;4245;42.120;24.732;2023-07-24T11:10:19;99198.25;;;42.81;23.88
8416;BME280;4245;42.120;24.732;2023-07-24T11:12:46;99200.78;;;43.31;22.78
8416;BME280;4245;42.120;24.732;2023-07-24T11:15:15;99187.25;;;43.24;21.93
8416;BME280;4245;42.120;24.732;2023-07-24T11:17:42;99194.19;;;43.27;22.23
8416;BME280;4245;42.120;24.732;2023-07-24T11:20:10;99194.94;;;43.58;21.13
8416;BME280;4245;42.120;24.732;2023-07-24T11:22:39;99187.88;;;43.61;21.41
8416;BME280;4245;42.120;24.732;2023-07-24T11:25:06;99193.63;;;43.64;21.05
8416;BME280;4245;42.120;24.732;2023-07-24T11:27:38;99189.50;;;43.53;21.60
8416;BME280;4245;42.120;24.732;2023-07-24T11:30:07;99186.28;;;43.29;22.01
8416;BME280;4245;42.120;24.732;2023-07-24T11:32:35;99180.50;;;41.75;23.49
8416;BME280;4245;42.120;24.732;2023-07-24T11:35:04;99172.69;;;40.35;24.77
8416;BME280;4245;42.120;24.732;2023-07-24T11:37:31;99163.56;;;39.97;25.41
8416;BME280;4245;42.120;24.732;2023-07-24T11:40:00;99166.28;;;40.02;24.91
8416;BME280;4245;42.120;24.732;2023-07-24T11:42:30;99169.06;;;40.67;23.95
8416;BME280;4245;42.120;24.732;2023-07-24T11:45:00;99160.53;;;41.45;22.75
8416;BME280;4245;42.120;24.732;2023-07-24T11:47:27;99161.59;;;42.07;22.71
8416;BME280;4245;42.120;24.732;2023-07-24T11:50:00;99151.78;;;42.32;23.54
8416;BME280;4245;42.120;24.732;2023-07-24T11:52:37;99156.72;;;42.97;22.79
8416;BME280;4245;42.120;24.732;2023-07-24T11:55:05;99156.19;;;43.34;21.97
8416;BME280;4245;42.120;24.732;2023-07-24T11:57:32;99162.03;;;43.72;21.28
8416;BME280;4245;42.120;24.732;2023-07-24T11:59:59;99157.25;;;43.82;21.13
8416;BME280;4245;42.120;24.732;2023-07-24T12:02:26;99161.06;;;44.11;20.04
8416;BME280;4245;42.120;24.732;2023-07-24T12:04:55;99159.41;;;44.36;19.10
8416;BME280;4245;42.120;24.732;2023-07-24T12:07:29;99155.09;;;44.47;18.74
8416;BME280;4245;42.120;24.732;2023-07-24T12:09:56;99167.28;;;44.98;17.49
8416;BME280;4245;42.120;24.732;2023-07-24T12:12:23;99168.94;;;44.99;16.47
8416;BME280;4245;42.120;24.732;2023-07-24T12:14:50;99166.78;;;45.05;16.35
8416;BME280;4245;42.120;24.732;2023-07-24T12:17:18;99149.66;;;44.97;16.24
8416;BME280;4245;42.120;24.732;2023-07-24T12:19:45;99147.44;;;44.74;17.29
8416;BME280;4245;42.120;24.732;2023-07-24T12:22:13;99155.06;;;44.73;17.41
8416;BME280;4245;42.120;24.732;2023-07-24T12:24:41;99139.97;;;44.23;18.14
8416;BME280;4245;42.120;24.732;2023-07-24T12:27:08;99141.75;;;44.91;17.54
8416;BME280;4245;42.120;24.732;2023-07-24T12:29:35;99136.16;;;44.91;18.03
8416;BME280;4245;42.120;24.732;2023-07-24T12:32:02;99129.34;;;45.00;18.10
8416;BME280;4245;42.120;24.732;2023-07-24T12:34:29;99132.50;;;45.28;18.53
8416;BME280;4245;42.120;24.732;2023-07-24T12:36:55;99123.19;;;45.45;18.62
8416;BME280;4245;42.120;24.732;2023-07-24T12:39:22;99126.19;;;45.11;18.55
8416;BME280;4245;42.120;24.732;2023-07-24T12:41:50;99122.63;;;45.22;17.97
8416;BME280;4245;42.120;24.732;2023-07-24T12:44:17;99120.22;;;44.74;18.25
8416;BME280;4245;42.120;24.732;2023-07-24T12:46:45;99112.19;;;44.73;18.69
8416;BME280;4245;42.120;24.732;2023-07-24T12:49:12;99100.63;;;44.74;18.87
8416;BME280;4245;42.120;24.732;2023-07-24T12:51:38;99091.72;;;44.17;19.72
8416;BME280;4245;42.120;24.732;2023-07-24T12:54:05;99097.47;;;44.29;19.94
8416;BME280;4245;42.120;24.732;2023-07-24T12:56:32;99095.34;;;44.09;19.10
8416;BME280;4245;42.120;24.732;2023-07-24T12:59:01;99094.06;;;43.89;19.41
8416;BME280;4245;42.120;24.732;2023-07-24T13:01:29;99082.38;;;43.70;19.50
8416;BME280;4245;42.120;24.732;2023-07-24T13:03:55;99089.09;;;44.03;19.11
8416;BME280;4245;42.120;24.732;2023-07-24T13:06:22;99089.66;;;44.52;18.99
8416;BME280;4245;42.120;24.732;2023-07-24T13:08:50;99097.34;;;44.72;18.22
8416;BME280;4245;42.120;24.732;2023-07-24T13:11:17;99094.44;;;44.51;18.72